Time;durP1;ratioP1;P1;durP2;ratioP2;P2;SDS_P1;SDS_P2;PMS_P1;PMS_P2;Temp;Humidity;BMP_temperature;BMP_pressure;BME280_temperature;BME280_humidity;BME280_pressure;Samples;Min_cycle;Max_cycle;Signal;HPM_P1;HPM_P2
2023/12/14 00:00:07;;;;;;;0.40;0.20;;;;;;;5.88;100.00;99389.25;5086975;28;20035;-65
2023/12/14 00:02:33;;;;;;;0.80;0.20;;;;;;;5.89;100.00;99393.50;5083250;28;20036;-65
2023/12/14 00:04:58;;;;;;;0.40;0.10;;;;;;;5.85;100.00;99395.53;5075876;28;20387;-65
2023/12/14 00:07:23;;;;;;;0.50;0.10;;;;;;;5.83;100.00;99399.19;5085972;28;20094;-65
2023/12/14 00:09:49;;;;;;;0.20;0.00;;;;;;;5.84;100.00;99408.59;5082860;28;20450;-65
2023/12/14 00:12:14;;;;;;;0.82;0.10;;;;;;;5.82;100.00;99413.91;5085635;28;20131;-65
2023/12/14 00:14:40;;;;;;;0.22;0.00;;;;;;;5.83;100.00;99423.28;5088567;28;20463;-65
2023/12/14 00:17:05;;;;;;;0.90;0.10;;;;;;;5.83;100.00;99425.06;5083859;28;20119;-65
2023/12/14 00:19:31;;;;;;;0.63;0.10;;;;;;;5.82;100.00;99438.94;5090265;28;20032;-65
2023/12/14 00:21:56;;;;;;;0.10;0.00;;;;;;;5.81;100.00;99427.78;5089664;28;20099;-65
2023/12/14 00:24:22;;;;;;;0.73;0.10;;;;;;;5.82;100.00;99438.94;5088433;28;20062;-65
2023/12/14 00:26:47;;;;;;;1.27;0.10;;;;;;;5.84;100.00;99455.13;5084654;28;20516;-65
2023/12/14 00:29:13;;;;;;;0.60;0.10;;;;;;;5.85;100.00;99462.75;5086856;28;20474;-65
2023/12/14 00:31:38;;;;;;;0.85;0.20;;;;;;;5.84;100.00;99461.09;5087796;28;20032;-66
2023/12/14 00:34:03;;;;;;;0.80;0.20;;;;;;;5.81;100.00;99456.22;5088591;28;20034;-65
2023/12/14 00:36:29;;;;;;;2.47;0.50;;;;;;;5.77;100.00;99454.03;5084657;28;20184;-66
2023/12/14 00:38:55;;;;;;;1.80;0.38;;;;;;;5.71;100.00;99470.09;5087576;28;20031;-65
2023/12/14 00:41:21;;;;;;;1.00;0.20;;;;;;;5.74;100.00;99477.56;5086367;28;20059;-65
2023/12/14 00:43:46;;;;;;;0.85;0.22;;;;;;;5.79;100.00;99483.97;5084828;28;20060;-65
2023/12/14 00:46:12;;;;;;;1.00;0.30;;;;;;;5.82;100.00;99490.63;5089195;28;20048;-65
2023/12/14 00:48:37;;;;;;;1.00;0.20;;;;;;;5.86;100.00;99505.72;5087341;28;20024;-65
2023/12/14 00:51:03;;;;;;;0.88;0.20;;;;;;;5.88;100.00;99505.59;5090430;28;20024;-65
2023/12/14 00:53:28;;;;;;;1.67;0.20;;;;;;;5.93;100.00;99524.13;5088427;28;20543;-65
2023/12/14 00:55:54;;;;;;;0.85;0.20;;;;;;;5.95;100.00;99527.38;5089436;28;20121;-65
2023/12/14 00:58:19;;;;;;;0.80;0.30;;;;;;;5.95;100.00;99532.56;5093142;28;20035;-65
2023/12/14 01:00:45;;;;;;;1.17;0.30;;;;;;;5.95;100.00;99529.97;5090225;28;20111;-65
2023/12/14 01:03:10;;;;;;;1.90;0.40;;;;;;;5.96;100.00;99539.38;5089935;28;20034;-65
2023/12/14 01:05:36;;;;;;;0.68;0.40;;;;;;;5.96;100.00;99544.53;5077660;28;20028;-65
2023/12/14 01:08:01;;;;;;;1.88;0.40;;;;;;;5.92;100.00;99544.00;5087262;28;20497;-65
2023/12/14 01:10:26;;;;;;;0.88;0.20;;;;;;;5.91;100.00;99542.34;5085564;28;20036;-65
2023/12/14 01:12:52;;;;;;;2.33;0.40;;;;;;;5.92;100.00;99548.34;5090759;28;20028;-65
2023/12/14 01:15:17;;;;;;;1.52;0.20;;;;;;;5.89;100.00;99553.78;5088100;28;20040;-65
2023/12/14 01:17:43;;;;;;;1.05;0.30;;;;;;;5.83;100.00;99556.88;5088913;28;20020;-65
2023/12/14 01:20:08;;;;;;;0.80;0.20;;;;;;;5.86;100.00;99559.19;5084422;28;20086;-65
2023/12/14 01:22:34;;;;;;;1.52;0.20;;;;;;;5.90;100.00;99570.94;5089609;28;20441;-65
2023/12/14 01:25:00;;;;;;;0.40;0.20;;;;;;;5.87;100.00;99571.19;5084553;28;20107;-65
2023/12/14 01:27:25;;;;;;;1.08;0.20;;;;;;;5.87;100.00;99568.59;5086916;28;20052;-65
2023/12/14 01:29:51;;;;;;;0.32;0.10;;;;;;;5.71;100.00;99560.56;5081341;28;20090;-65
2023/12/14 01:32:16;;;;;;;1.25;0.10;;;;;;;5.61;100.00;99560.56;5087036;28;20494;-65
2023/12/14 01:34:42;;;;;;;0.10;0.00;;;;;;;5.57;100.00;99557.44;5085950;28;20023;-65
2023/12/14 01:37:07;;;;;;;0.30;0.00;;;;;;;5.53;100.00;99563.00;5072479;28;20089;-65
2023/12/14 01:39:33;;;;;;;1.17;0.00;;;;;;;5.53;100.00;99563.81;5089251;28;20020;-65
2023/12/14 01:41:58;;;;;;;0.00;0.00;;;;;;;5.50;100.00;99566.66;5083708;28;20084;-65
2023/12/14 01:44:24;;;;;;;0.22;0.00;;;;;;;5.46;100.00;99567.06;5084982;28;20043;-65
2023/12/14 01:46:49;;;;;;;0.10;0.00;;;;;;;5.41;100.00;99572.63;5089323;28;20035;-65
2023/12/14 01:49:15;;;;;;;0.55;0.00;;;;;;;5.43;100.00;99578.47;5070482;28;20035;-65
2023/12/14 01:51:40;;;;;;;1.17;0.00;;;;;;;5.40;100.00;99589.09;5085149;28;20040;-65
2023/12/14 01:54:06;;;;;;;0.20;0.00;;;;;;;5.38;100.00;99593.56;5085494;28;20028;-65
2023/12/14 01:56:31;;;;;;;0.95;0.00;;;;;;;5.31;100.00;99595.03;5087855;28;20043;-65
2023/12/14 01:58:57;;;;;;;0.10;0.00;;;;;;;5.27;100.00;99589.31;5069338;28;20035;-65
2023/12/14 02:01:38;;;;;;;0.03;0.00;;;;;;;5.23;100.00;99587.13;5085980;28;20327;-66
2023/12/14 02:04:06;;;;;;;0.20;0.00;;;;;;;5.14;100.00;99593.09;5086881;28;20047;-64
2023/12/14 02:06:31;;;;;;;0.38;0.08;;;;;;;5.04;100.00;99592.25;5090244;28;20039;-65
2023/12/14 02:08:57;;;;;;;0.13;0.00;;;;;;;5.03;100.00;99585.44;5085325;28;20016;-65
2023/12/14 02:11:22;;;;;;;0.03;0.00;;;;;;;5.11;100.00;99590.78;5084524;28;20122;-64
2023/12/14 02:13:48;;;;;;;1.25;0.10;;;;;;;5.13;100.00;99597.44;5085314;28;20119;-66
2023/12/14 02:16:13;;;;;;;0.40;0.10;;;;;;;5.11;100.00;99598.53;5087827;28;20485;-67
2023/12/14 02:18:39;;;;;;;1.10;0.00;;;;;;;5.02;100.00;99610.44;5082850;28;20407;-65
2023/12/14 02:21:04;;;;;;;0.10;0.00;;;;;;;4.96;100.00;99608.38;5085402;28;21542;-65
2023/12/14 02:23:30;;;;;;;0.10;0.00;;;;;;;4.94;100.00;99618.84;5086766;28;20032;-65
2023/12/14 02:25:55;;;;;;;0.30;0.00;;;;;;;4.89;100.00;99609.84;5088406;28;20067;-65
2023/12/14 02:28:21;;;;;;;0.40;0.00;;;;;;;4.87;100.00;99628.03;5082369;28;20055;-65
2023/12/14 02:30:46;;;;;;;0.25;0.00;;;;;;;4.85;100.00;99622.19;5088544;28;20043;-65
2023/12/14 02:33:12;;;;;;;0.68;0.08;;;;;;;4.83;100.00;99626.66;5086835;28;20494;-65
2023/12/14 02:35:37;;;;;;;0.68;0.10;;;;;;;4.83;100.00;99626.66;5072793;28;20067;-65
2023/12/14 02:38:03;;;;;;;0.75;0.10;;;;;;;4.82;100.00;99627.59;5068724;28;20380;-65
2023/12/14 02:40:29;;;;;;;0.30;0.00;;;;;;;4.81;100.00;99625.97;5085500;28;20135;-66
2023/12/14 02:42:54;;;;;;;1.02;0.22;;;;;;;4.76;100.00;99635.84;5080796;28;20051;-65
2023/12/14 02:45:19;;;;;;;0.70;0.20;;;;;;;4.70;100.00;99638.97;5085994;28;20115;-66
2023/12/14 02:47:47;;;;;;;0.30;0.10;;;;;;;4.70;100.00;99640.72;5083538;28;20063;-66
2023/12/14 02:50:13;;;;;;;0.40;0.10;;;;;;;4.69;100.00;99642.50;5080776;28;20472;-66
2023/12/14 02:52:38;;;;;;;0.98;0.03;;;;;;;4.61;100.00;99644.88;5081628;28;20028;-66
2023/12/14 02:55:04;;;;;;;0.57;0.10;;;;;;;4.64;100.00;99648.03;5083274;28;20467;-66
2023/12/14 02:57:30;;;;;;;0.25;0.10;;;;;;;4.63;100.00;99648.16;5067739;28;20031;-66
2023/12/14 02:59:55;;;;;;;3.45;0.10;;;;;;;4.46;100.00;99653.88;5088023;28;20020;-66
2023/12/14 03:02:21;;;;;;;0.60;0.10;;;;;;;4.33;100.00;99654.88;5083786;28;20118;-66
2023/12/14 03:04:46;;;;;;;0.30;0.10;;;;;;;4.26;100.00;99643.41;5087612;28;20162;-66
2023/12/14 03:07:11;;;;;;;0.10;0.00;;;;;;;4.21;100.00;99644.75;5088942;28;20118;-66
2023/12/14 03:09:41;;;;;;;0.98;0.10;;;;;;;4.17;100.00;99648.50;5084654;28;20046;-66
2023/12/14 03:12:06;;;;;;;1.65;0.10;;;;;;;4.15;100.00;99655.53;5083340;28;20088;-66
2023/12/14 03:14:33;;;;;;;0.63;0.10;;;;;;;4.16;100.00;99650.28;5078182;28;20024;-66
2023/12/14 03:16:59;;;;;;;0.25;0.03;;;;;;;4.11;100.00;99657.56;5084317;28;20553;-65
2023/12/14 03:19:24;;;;;;;0.22;0.00;;;;;;;4.15;100.00;99658.13;5083959;28;20032;-66
2023/12/14 03:21:50;;;;;;;0.10;0.00;;;;;;;4.33;100.00;99651.47;5085672;28;20475;-66
2023/12/14 03:24:15;;;;;;;0.30;0.03;;;;;;;4.28;100.00;99659.56;5086776;28;20454;-66
2023/12/14 03:26:40;;;;;;;0.47;0.10;;;;;;;4.18;100.00;99650.97;5083164;28;20470;-66
2023/12/14 03:29:07;;;;;;;0.15;0.00;;;;;;;4.25;100.00;99657.25;5086339;28;20059;-66
2023/12/14 03:31:33;;;;;;;2.17;0.10;;;;;;;4.30;100.00;99660.25;5084596;28;20024;-66
2023/12/14 03:33:58;;;;;;;0.52;0.10;;;;;;;4.37;100.00;99664.94;5087257;28;20042;-65
2023/12/14 03:36:26;;;;;;;0.45;0.00;;;;;;;4.35;100.00;99665.06;5086924;28;20410;-66
2023/12/14 03:38:52;;;;;;;5.50;0.10;;;;;;;4.21;100.00;99660.22;5087392;28;20028;-66
2023/12/14 03:41:17;;;;;;;0.47;0.10;;;;;;;4.08;100.00;99669.88;5081327;28;20051;-66
2023/12/14 03:43:44;;;;;;;0.75;0.10;;;;;;;3.96;100.00;99672.47;5080967;28;20036;-66
2023/12/14 03:46:09;;;;;;;0.10;0.03;;;;;;;3.84;100.00;99670.84;5085906;28;20824;-66
2023/12/14 03:48:35;;;;;;;0.15;0.00;;;;;;;3.98;100.00;99685.25;5077932;28;20074;-65
2023/12/14 03:51:05;;;;;;;1.13;0.10;;;;;;;4.04;100.00;99681.34;5067342;28;20028;-66
2023/12/14 03:53:31;;;;;;;1.27;0.05;;;;;;;4.27;100.00;99681.13;5083596;28;20020;-70
2023/12/14 03:55:58;;;;;;;3.85;0.10;;;;;;;4.36;100.00;99677.00;5086639;28;20073;-66
2023/12/14 03:58:23;;;;;;;0.40;0.00;;;;;;;4.38;100.00;99674.31;5082172;28;20393;-66
2023/12/14 04:00:49;;;;;;;0.32;0.10;;;;;;;4.38;100.00;99682.84;5083914;28;20114;-66
2023/12/14 04:03:14;;;;;;;0.85;0.10;;;;;;;4.22;100.00;99678.13;5084585;28;20028;-66
2023/12/14 04:05:40;;;;;;;0.43;0.08;;;;;;;4.34;100.00;99684.03;5084644;28;20028;-66
2023/12/14 04:08:05;;;;;;;0.50;0.10;;;;;;;4.45;100.00;99689.16;5084329;28;20028;-66
2023/12/14 04:10:30;;;;;;;0.30;0.10;;;;;;;4.40;100.00;99688.72;5067823;28;20120;-66
2023/12/14 04:12:56;;;;;;;2.65;0.10;;;;;;;4.34;100.00;99687.44;5082539;28;20541;-66
2023/12/14 04:15:22;;;;;;;1.48;0.10;;;;;;;4.18;100.00;99694.78;5070331;28;20046;-66
2023/12/14 04:17:47;;;;;;;0.45;0.10;;;;;;;4.10;100.00;99704.06;5087096;28;20468;-66
2023/12/14 04:20:15;;;;;;;0.88;0.15;;;;;;;4.06;100.00;99702.69;5081012;28;20036;-66
2023/12/14 04:22:43;;;;;;;1.00;0.10;;;;;;;4.11;100.00;99711.69;5085360;28;20031;-66
2023/12/14 04:25:08;;;;;;;1.13;0.10;;;;;;;4.06;100.00;99708.66;5083161;28;20531;-66
2023/12/14 04:27:34;;;;;;;26.40;4.55;;;;;;;4.05;100.00;99711.34;5085961;28;20079;-66
2023/12/14 04:29:59;;;;;;;2.97;0.60;;;;;;;4.00;100.00;99709.94;5086845;28;20043;-66
2023/12/14 04:32:25;;;;;;;10.80;2.80;;;;;;;3.95;100.00;99709.50;5085256;28;20042;-66
2023/12/14 04:34:50;;;;;;;9.55;2.05;;;;;;;3.89;100.00;99706.56;5087853;28;20042;-66
2023/12/14 04:37:16;;;;;;;3.40;0.70;;;;;;;3.93;100.00;99708.78;5089860;28;20479;-66
2023/12/14 04:39:42;;;;;;;3.28;0.80;;;;;;;4.03;100.00;99710.66;5089911;28;20036;-66
2023/12/14 04:42:07;;;;;;;8.50;1.08;;;;;;;4.04;100.00;99720.03;5088381;28;20032;-66
2023/12/14 04:44:33;;;;;;;3.50;0.65;;;;;;;3.98;100.00;99711.84;5085789;28;20118;-66
2023/12/14 04:46:58;;;;;;;7.15;0.68;;;;;;;3.89;100.00;99716.88;5085118;28;20379;-66
2023/12/14 04:49:24;;;;;;;1.95;0.43;;;;;;;3.97;100.00;99717.94;5084159;28;20048;-66
2023/12/14 04:51:49;;;;;;;2.40;0.30;;;;;;;4.08;100.00;99719.66;5090208;28;20068;-66
2023/12/14 04:54:15;;;;;;;1.13;0.10;;;;;;;4.24;100.00;99717.50;5086911;28;20433;-66
2023/12/14 04:56:41;;;;;;;0.68;0.15;;;;;;;4.34;100.00;99717.56;5073959;28;20024;-66
2023/12/14 04:59:07;;;;;;;0.98;0.22;;;;;;;4.43;100.00;99726.34;5090303;28;20105;-66
2023/12/14 05:01:32;;;;;;;0.98;0.30;;;;;;;4.40;100.00;99724.00;5084086;28;20029;-66
2023/12/14 05:03:58;;;;;;;0.68;0.10;;;;;;;4.33;100.00;99728.84;5086148;28;20024;-66
2023/12/14 05:06:23;;;;;;;0.20;0.00;;;;;;;4.28;100.00;99731.78;5089898;28;20036;-66
2023/12/14 05:08:48;;;;;;;1.08;0.00;;;;;;;4.24;100.00;99737.31;5085766;28;20386;-66
2023/12/14 05:11:14;;;;;;;0.90;0.10;;;;;;;4.15;100.00;99738.88;5091118;28;20444;-66
2023/12/14 05:13:40;;;;;;;2.38;0.20;;;;;;;4.10;100.00;99735.00;5087131;28;20036;-66
2023/12/14 05:16:06;;;;;;;4.00;0.28;;;;;;;4.03;100.00;99747.56;5089674;28;20038;-66
2023/12/14 05:18:32;;;;;;;2.60;0.20;;;;;;;3.92;100.00;99735.50;5086636;28;20016;-66
2023/12/14 05:20:57;;;;;;;0.95;0.15;;;;;;;3.83;100.00;99743.94;5089311;28;20067;-66
2023/12/14 05:23:23;;;;;;;1.75;0.30;;;;;;;3.84;100.00;99744.78;5085348;28;20484;-65
2023/12/14 05:25:49;;;;;;;1.13;0.20;;;;;;;3.78;100.00;99750.44;5088439;28;20559;-66
2023/12/14 05:28:15;;;;;;;1.75;0.13;;;;;;;3.75;100.00;99758.38;5082946;28;20053;-66
2023/12/14 05:30:41;;;;;;;1.10;0.17;;;;;;;3.86;100.00;99763.50;5089435;28;20055;-66
2023/12/14 05:33:06;;;;;;;0.55;0.10;;;;;;;3.88;100.00;99767.59;5088439;28;20390;-66
2023/12/14 05:35:32;;;;;;;1.42;0.13;;;;;;;3.79;100.00;99772.66;5089039;28;20043;-66
2023/12/14 05:37:58;;;;;;;0.75;0.17;;;;;;;3.66;100.00;99768.47;5089135;28;20035;-66
2023/12/14 05:40:23;;;;;;;0.75;0.10;;;;;;;3.58;100.00;99775.13;5087242;28;20142;-65
2023/12/14 05:42:49;;;;;;;0.52;0.10;;;;;;;3.55;100.00;99776.19;5091475;28;20094;-66
2023/12/14 05:45:14;;;;;;;0.50;0.10;;;;;;;3.51;100.00;99779.91;5089044;28;20044;-66
2023/12/14 05:47:41;;;;;;;0.65;0.10;;;;;;;3.47;100.00;99778.50;5087598;28;20122;-66
2023/12/14 05:50:09;;;;;;;0.98;0.10;;;;;;;3.46;100.00;99779.44;5085093;28;20389;-66
2023/12/14 05:52:35;;;;;;;0.70;0.10;;;;;;;3.43;100.00;99792.56;5089236;28;20032;-66
2023/12/14 05:55:00;;;;;;;1.40;0.20;;;;;;;3.49;100.00;99792.09;5091809;28;20040;-65
2023/12/14 05:57:26;;;;;;;0.50;0.10;;;;;;;3.62;100.00;99794.56;5092483;28;20028;-65
2023/12/14 05:59:51;;;;;;;3.17;0.10;;;;;;;3.69;100.00;99806.06;5073205;28;20035;-65
2023/12/14 06:02:17;;;;;;;0.50;0.10;;;;;;;3.72;100.00;99797.28;5085927;28;20453;-65
2023/12/14 06:04:42;;;;;;;1.63;0.30;;;;;;;3.61;100.00;99806.63;5086167;28;20032;-65
2023/12/14 06:07:08;;;;;;;1.13;0.20;;;;;;;3.87;100.00;99809.78;5091294;28;20044;-65
2023/12/14 06:09:34;;;;;;;2.63;0.20;;;;;;;4.08;100.00;99809.88;5072321;28;20047;-65
2023/12/14 06:12:01;;;;;;;3.85;0.50;;;;;;;4.24;100.00;99810.34;5091711;28;20068;-65
2023/12/14 06:14:27;;;;;;;3.72;0.65;;;;;;;4.21;100.00;99813.16;5072904;28;20056;-65
2023/12/14 06:16:52;;;;;;;1.80;0.30;;;;;;;4.25;100.00;99816.31;5090600;28;20070;-65
2023/12/14 06:19:18;;;;;;;2.08;0.30;;;;;;;4.30;100.00;99815.00;5085428;28;20028;-65
2023/12/14 06:21:43;;;;;;;0.47;0.20;;;;;;;4.13;100.00;99830.16;5073051;28;20493;-66
2023/12/14 06:24:09;;;;;;;0.73;0.15;;;;;;;3.86;100.00;99836.50;5091345;28;20028;-66
2023/12/14 06:26:34;;;;;;;0.25;0.10;;;;;;;3.67;100.00;99842.25;5090986;28;20067;-66
2023/12/14 06:29:00;;;;;;;0.82;0.10;;;;;;;3.55;100.00;99848.31;5092933;28;20051;-66
2023/12/14 06:31:25;;;;;;;0.95;0.20;;;;;;;3.46;100.00;99843.84;5088674;28;20036;-65
2023/12/14 06:33:51;;;;;;;0.85;0.20;;;;;;;3.50;100.00;99852.97;5087182;28;20036;-65
2023/12/14 06:36:19;;;;;;;1.83;0.22;;;;;;;3.45;100.00;99851.66;5083323;28;20036;-66
2023/12/14 06:38:45;;;;;;;1.30;0.20;;;;;;;3.35;100.00;99856.69;5083271;28;20084;-65
2023/12/14 06:41:23;;;;;;;0.80;0.20;;;;;;;3.28;100.00;99860.66;5090430;28;20155;-65
2023/12/14 06:43:49;;;;;;;5.95;0.30;;;;;;;3.75;100.00;99853.72;5086454;28;20452;-66
2023/12/14 06:46:15;;;;;;;2.33;0.20;;;;;;;4.08;100.00;99866.59;5065527;28;20055;-66
2023/12/14 06:48:41;;;;;;;0.80;0.10;;;;;;;4.27;100.00;99869.38;5093413;28;20436;-66
2023/12/14 06:51:07;;;;;;;3.42;0.30;;;;;;;4.31;100.00;99877.72;5086422;28;20542;-66
2023/12/14 06:53:32;;;;;;;1.55;0.55;;;;;;;4.18;100.00;99893.34;5088631;28;20498;-66
2023/12/14 06:55:57;;;;;;;3.45;0.60;;;;;;;4.05;100.00;99891.81;5083425;28;20128;-66
2023/12/14 06:58:23;;;;;;;2.95;0.70;;;;;;;3.98;100.00;99896.59;5078643;28;20027;-66
2023/12/14 07:00:48;;;;;;;3.30;0.40;;;;;;;3.97;100.00;99895.78;5090358;28;20024;-66
2023/12/14 07:03:14;;;;;;;0.80;0.30;;;;;;;4.14;100.00;99899.66;5084081;28;20029;-66
2023/12/14 07:05:39;;;;;;;0.77;0.20;;;;;;;4.23;100.00;99898.97;5083609;28;20070;-66
2023/12/14 07:08:05;;;;;;;3.92;0.50;;;;;;;4.26;100.00;99905.59;5089341;28;20304;-66
2023/12/14 07:10:31;;;;;;;2.17;0.30;;;;;;;4.25;100.00;99909.16;5091786;28;20036;-66
2023/12/14 07:12:56;;;;;;;0.70;0.20;;;;;;;4.25;100.00;99915.09;5096664;28;20043;-66
2023/12/14 07:15:22;;;;;;;1.40;0.20;;;;;;;4.20;100.00;99911.25;5086830;28;20029;-66
2023/12/14 07:17:47;;;;;;;1.67;0.68;;;;;;;4.20;100.00;99916.41;5088004;28;20081;-66
2023/12/14 07:20:13;;;;;;;1.42;0.20;;;;;;;4.23;100.00;99917.00;5087717;28;20467;-66
2023/12/14 07:22:38;;;;;;;2.35;0.50;;;;;;;4.30;100.00;99920.72;5090427;28;20092;-66
2023/12/14 07:25:04;;;;;;;3.08;0.85;;;;;;;4.37;100.00;99938.31;5088375;28;20043;-66
2023/12/14 07:27:29;;;;;;;4.40;0.88;;;;;;;4.30;100.00;99938.78;5088718;28;20102;-66
2023/12/14 07:29:55;;;;;;;3.47;0.93;;;;;;;4.26;100.00;99944.28;5090789;28;20386;-66
2023/12/14 07:32:21;;;;;;;3.70;0.80;;;;;;;4.31;100.00;99950.75;5090336;28;20032;-66
2023/12/14 07:34:47;;;;;;;6.03;1.33;;;;;;;4.35;100.00;99959.06;5089864;28;20039;-66
2023/12/14 07:37:13;;;;;;;2.58;0.60;;;;;;;4.41;100.00;99960.34;5088847;28;20398;-67
2023/12/14 07:39:38;;;;;;;2.05;0.80;;;;;;;4.54;100.00;99968.81;5088740;28;20027;-66
2023/12/14 07:42:05;;;;;;;4.22;0.95;;;;;;;4.70;100.00;99974.44;5085606;28;20021;-67
2023/12/14 07:44:30;;;;;;;1.88;0.77;;;;;;;4.77;100.00;99973.00;5087809;28;20033;-67
2023/12/14 07:46:56;;;;;;;1.88;0.75;;;;;;;4.86;100.00;99966.28;5085485;28;20376;-66
2023/12/14 07:49:23;;;;;;;3.20;0.60;;;;;;;4.91;100.00;99970.16;5085007;28;20031;-66
2023/12/14 07:51:49;;;;;;;1.48;0.80;;;;;;;4.96;100.00;99968.03;5090665;28;20562;-66
2023/12/14 07:54:15;;;;;;;1.02;0.47;;;;;;;5.01;100.00;99980.59;5084634;28;20025;-66
2023/12/14 07:56:40;;;;;;;1.35;0.70;;;;;;;5.08;100.00;99992.09;5093903;28;20158;-66
2023/12/14 07:59:07;;;;;;;1.00;0.40;;;;;;;5.11;100.00;99991.03;5090804;28;20028;-66
2023/12/14 08:01:33;;;;;;;2.85;0.68;;;;;;;5.19;100.00;100001.56;5088432;28;20598;-67
2023/12/14 08:03:59;;;;;;;1.17;0.60;;;;;;;5.26;100.00;99998.34;5090198;28;20034;-66
2023/12/14 08:06:25;;;;;;;2.42;1.20;;;;;;;5.31;100.00;99998.81;5092501;28;20027;-66
2023/12/14 08:08:50;;;;;;;1.65;0.50;;;;;;;5.31;100.00;99995.41;5090000;28;20024;-66
2023/12/14 08:11:16;;;;;;;1.23;0.10;;;;;;;5.31;100.00;100003.16;5090350;28;20090;-66
2023/12/14 08:13:41;;;;;;;0.90;0.20;;;;;;;5.29;100.00;99997.28;5093211;28;20020;-67
2023/12/14 08:16:11;;;;;;;1.77;0.30;;;;;;;5.28;100.00;100000.81;5091856;28;20078;-67
2023/12/14 08:18:37;;;;;;;1.92;0.60;;;;;;;5.30;100.00;100011.84;5086885;28;20121;-67
2023/12/14 08:21:03;;;;;;;2.40;0.10;;;;;;;5.29;100.00;100023.13;5093090;28;20051;-67
2023/12/14 08:23:30;;;;;;;0.60;0.10;;;;;;;5.29;100.00;100017.94;5091386;28;20479;-67
2023/12/14 08:25:58;;;;;;;3.28;0.85;;;;;;;5.30;100.00;100030.75;5093901;28;20040;-67
2023/12/14 08:28:25;;;;;;;1.27;0.30;;;;;;;5.33;100.00;100027.94;5090596;28;20050;-67
2023/12/14 08:30:51;;;;;;;1.63;0.30;;;;;;;5.36;100.00;100031.22;5089530;28;20061;-67
2023/12/14 08:33:16;;;;;;;1.25;0.10;;;;;;;5.45;100.00;100030.47;5093647;28;20032;-67
2023/12/14 08:35:42;;;;;;;0.32;0.10;;;;;;;5.50;100.00;100029.19;5090560;28;20090;-67
2023/12/14 08:38:07;;;;;;;0.40;0.10;;;;;;;5.46;100.00;100042.47;5088333;28;20424;-69
2023/12/14 08:40:33;;;;;;;0.75;0.10;;;;;;;5.46;100.00;100053.63;5095866;28;20032;-67
2023/12/14 08:42:58;;;;;;;2.20;0.10;;;;;;;5.46;100.00;100048.44;5088816;28;20044;-67
2023/12/14 08:45:24;;;;;;;2.90;0.17;;;;;;;5.39;100.00;100052.44;5091085;28;20035;-67
2023/12/14 08:47:49;;;;;;;1.02;0.20;;;;;;;5.31;100.00;100055.63;5091001;28;20047;-67
2023/12/14 08:50:15;;;;;;;1.05;0.10;;;;;;;5.22;100.00;100056.34;5093413;28;20051;-67
2023/12/14 08:52:41;;;;;;;2.42;0.45;;;;;;;5.16;100.00;100056.03;5090964;28;20445;-67
2023/12/14 08:55:08;;;;;;;1.17;0.20;;;;;;;5.14;100.00;100065.66;5090155;28;20040;-67
2023/12/14 08:57:34;;;;;;;1.27;0.15;;;;;;;5.20;100.00;100063.41;5073070;28;20093;-67
2023/12/14 08:59:59;;;;;;;1.13;0.20;;;;;;;5.28;100.00;100062.81;5091520;28;20035;-67
2023/12/14 09:02:25;;;;;;;1.25;0.43;;;;;;;5.34;100.00;100064.91;5092497;28;20028;-67
2023/12/14 09:04:51;;;;;;;0.52;0.10;;;;;;;5.41;100.00;100078.16;5093185;28;20081;-67
2023/12/14 09:07:17;;;;;;;0.80;0.20;;;;;;;5.49;100.00;100078.41;5094042;28;20024;-67
2023/12/14 09:09:42;;;;;;;0.80;0.30;;;;;;;5.53;100.00;100078.03;5091357;28;20391;-67
2023/12/14 09:12:08;;;;;;;0.65;0.20;;;;;;;5.55;100.00;100078.72;5087288;28;20036;-67
2023/12/14 09:14:33;;;;;;;2.17;0.20;;;;;;;5.63;100.00;100081.53;5090527;28;20036;-66
2023/12/14 09:16:58;;;;;;;0.68;0.10;;;;;;;5.66;100.00;100072.72;5092046;28;20036;-65
2023/12/14 09:19:24;;;;;;;1.20;0.10;;;;;;;5.71;100.00;100090.41;5098695;28;20031;-67
2023/12/14 09:21:49;;;;;;;0.82;0.10;;;;;;;5.74;100.00;100087.59;5092590;28;20031;-67
2023/12/14 09:24:15;;;;;;;1.40;0.30;;;;;;;5.85;100.00;100082.38;5094792;28;20036;-67
2023/12/14 09:26:40;;;;;;;1.48;0.20;;;;;;;5.91;100.00;100094.84;5090589;28;20035;-67
2023/12/14 09:29:06;;;;;;;3.58;0.30;;;;;;;5.95;100.00;100088.47;5090896;28;20509;-67
2023/12/14 09:31:32;;;;;;;2.60;0.50;;;;;;;6.02;100.00;100091.41;5065238;28;20039;-67
2023/12/14 09:33:57;;;;;;;0.68;0.20;;;;;;;6.11;100.00;100095.81;5089361;28;20036;-67
2023/12/14 09:36:24;;;;;;;2.03;0.13;;;;;;;6.20;100.00;100100.22;5098480;28;20040;-67
2023/12/14 09:38:49;;;;;;;0.50;0.20;;;;;;;6.26;100.00;100094.56;5091494;28;20162;-67
2023/12/14 09:41:14;;;;;;;1.02;0.20;;;;;;;6.30;100.00;100107.13;5086975;28;20115;-67
2023/12/14 09:43:40;;;;;;;2.03;0.20;;;;;;;6.32;100.00;100097.47;5087374;28;20028;-66
2023/12/14 09:46:07;;;;;;;3.20;0.30;;;;;;;6.41;100.00;100106.25;5098993;28;20498;-68
2023/12/14 09:48:33;;;;;;;2.00;0.25;;;;;;;6.48;100.00;100098.78;5087230;28;20122;-66
2023/12/14 09:50:58;;;;;;;0.95;0.20;;;;;;;6.55;100.00;100105.94;5091351;28;20054;-66
2023/12/14 09:53:24;;;;;;;0.90;0.20;;;;;;;6.66;100.00;100112.78;5092846;28;20470;-66
2023/12/14 09:55:49;;;;;;;2.63;0.20;;;;;;;6.67;100.00;100117.00;5086859;28;20663;-66
2023/12/14 09:58:15;;;;;;;0.52;0.10;;;;;;;6.77;100.00;100114.47;5087408;28;20525;-67
2023/12/14 10:00:42;;;;;;;2.63;0.10;;;;;;;6.79;100.00;100115.97;5092734;28;20102;-66
2023/12/14 10:03:28;;;;;;;0.50;0.10;;;;;;;6.85;100.00;100115.47;5095722;28;20055;-67
2023/12/14 10:05:58;;;;;;;1.40;0.10;;;;;;;6.91;100.00;100111.53;5073358;28;20487;-66
2023/12/14 10:08:24;;;;;;;2.25;0.17;;;;;;;6.94;100.00;100106.94;5090824;28;20032;-67
2023/12/14 10:10:52;;;;;;;1.40;0.20;;;;;;;7.04;100.00;100111.34;5086909;28;20066;-67
2023/12/14 10:13:19;;;;;;;0.65;0.10;;;;;;;7.10;100.00;100119.38;5072291;28;20032;-67
2023/12/14 10:15:46;;;;;;;1.58;0.22;;;;;;;7.16;100.00;100105.09;5092497;28;20467;-67
2023/12/14 10:18:21;;;;;;;1.00;0.10;;;;;;;7.16;100.00;100100.72;5086607;28;20482;-67
2023/12/14 10:20:46;;;;;;;0.40;0.10;;;;;;;7.21;100.00;100095.97;5084691;28;20491;-66
2023/12/14 10:23:12;;;;;;;0.68;0.10;;;;;;;7.28;100.00;100093.69;5091145;28;20032;-67
2023/12/14 10:25:38;;;;;;;1.55;0.40;;;;;;;7.33;100.00;100096.69;5088941;28;20110;-67
2023/12/14 10:28:03;;;;;;;1.75;0.20;;;;;;;7.39;100.00;100100.53;5088951;28;20475;-67
2023/12/14 10:30:30;;;;;;;0.45;0.10;;;;;;;7.51;100.00;100089.09;5091866;28;20028;-67
2023/12/14 10:32:57;;;;;;;0.82;0.10;;;;;;;7.54;100.00;100100.03;5090699;28;20055;-68
2023/12/14 10:35:22;;;;;;;0.43;0.05;;;;;;;7.68;100.00;100090.19;5089013;28;20101;-67
2023/12/14 10:37:52;;;;;;;0.57;0.10;;;;;;;7.86;100.00;100098.94;5085305;28;20040;-67
2023/12/14 10:40:18;;;;;;;1.15;0.20;;;;;;;8.02;100.00;100099.25;5089090;28;20029;-67
2023/12/14 10:42:44;;;;;;;0.50;0.10;;;;;;;8.09;100.00;100097.72;5090821;28;20093;-67
2023/12/14 10:45:12;;;;;;;0.70;0.20;;;;;;;8.15;100.00;100107.53;5089500;28;20474;-67
2023/12/14 10:47:42;;;;;;;0.82;0.20;;;;;;;8.33;100.00;100112.91;5079848;28;20387;-67
2023/12/14 10:50:11;;;;;;;0.70;0.13;;;;;;;8.43;100.00;100107.69;5086309;28;20032;-67
2023/12/14 10:52:39;;;;;;;0.68;0.30;;;;;;;8.53;100.00;100108.47;5091888;28;20036;-67
2023/12/14 10:55:08;;;;;;;1.55;0.28;;;;;;;8.53;100.00;100109.28;5089141;28;20444;-67
2023/12/14 10:57:34;;;;;;;0.60;0.20;;;;;;;8.51;100.00;100111.19;5088730;28;20043;-67
2023/12/14 11:00:01;;;;;;;2.95;0.20;;;;;;;8.44;100.00;100117.94;5093736;28;20475;-67
2023/12/14 11:02:27;;;;;;;1.23;0.20;;;;;;;8.59;100.00;100123.50;5073147;28;20032;-67
2023/12/14 11:04:59;;;;;;;1.85;0.28;;;;;;;8.69;100.00;100119.09;5088096;28;20024;-67
2023/12/14 11:07:54;;;;;;;1.30;0.22;;;;;;;8.82;97.46;100119.63;5084097;28;20032;-67
2023/12/14 11:10:24;;;;;;;1.63;0.20;;;;;;;8.94;98.70;100128.06;5088523;28;20046;-66
2023/12/14 11:12:57;;;;;;;3.38;0.20;;;;;;;9.00;97.69;100132.66;5083533;28;20024;-66
2023/12/14 11:15:23;;;;;;;1.83;0.20;;;;;;;9.02;97.44;100138.53;5089362;28;20431;-67
2023/12/14 11:18:10;;;;;;;0.50;0.10;;;;;;;9.04;96.47;100139.22;5080750;28;20078;-67
2023/12/14 11:20:44;;;;;;;0.93;0.10;;;;;;;9.11;97.24;100142.88;5088765;28;20111;-66
2023/12/14 11:23:13;;;;;;;1.10;0.13;;;;;;;9.10;96.71;100146.44;5076423;28;20490;-67
2023/12/14 11:25:40;;;;;;;1.25;0.40;;;;;;;9.13;100.00;100143.56;5087522;28;20039;-66